createdAt,value
2022-11-06T00:01:13.309Z,5.13
2022-11-06T00:04:00.873Z,5.08
2022-11-06T00:06:50.659Z,5.08
2022-11-06T00:09:38.598Z,5.04
2022-11-06T00:12:25.994Z,5.00
2022-11-06T00:15:14.307Z,4.99
2022-11-06T00:18:06.033Z,4.94
2022-11-06T00:20:53.714Z,4.90
2022-11-06T00:23:42.503Z,4.85
2022-11-06T00:26:31.989Z,4.80
2022-11-06T00:29:19.359Z,4.77
2022-11-06T00:32:07.204Z,4.72
2022-11-06T00:34:56.104Z,4.67
2022-11-06T00:37:43.797Z,4.63
2022-11-06T00:40:31.352Z,4.57
2022-11-06T00:43:19.179Z,4.53
2022-11-06T00:46:09.853Z,4.48
2022-11-06T00:48:57.848Z,4.42
2022-11-06T00:51:46.876Z,4.38
2022-11-06T00:54:34.238Z,4.33
2022-11-06T00:57:21.884Z,4.30
2022-11-06T01:00:12.008Z,4.25
2022-11-06T01:02:59.951Z,4.20
2022-11-06T01:05:47.819Z,4.15
2022-11-06T01:08:37.590Z,4.11
2022-11-06T01:11:37.482Z,4.06
2022-11-06T01:14:34.796Z,4.01
2022-11-06T01:17:22.493Z,3.97
2022-11-06T01:20:11.890Z,3.93
2022-11-06T01:22:59.361Z,3.90
2022-11-06T01:25:58.738Z,3.86
2022-11-06T01:28:46.617Z,3.83
2022-11-06T01:31:36.257Z,3.79
2022-11-06T01:34:24.113Z,3.77
2022-11-06T01:37:14.499Z,3.74
2022-11-06T01:40:02.739Z,3.72
2022-11-06T01:42:51.620Z,3.71
2022-11-06T01:45:40.859Z,3.67
2022-11-06T01:48:29.927Z,3.63
2022-11-06T01:51:17.577Z,3.60
2022-11-06T01:54:09.814Z,3.57
2022-11-06T01:57:00.821Z,3.54
2022-11-06T01:59:54.022Z,3.54
2022-11-06T02:02:42.328Z,3.49
2022-11-06T02:05:31.083Z,3.48
2022-11-06T02:08:21.851Z,3.46
2022-11-06T02:11:09.495Z,3.44
2022-11-06T02:14:09.710Z,3.38
2022-11-06T02:17:10.608Z,3.38
2022-11-06T02:20:07.820Z,3.38
2022-11-06T02:23:51.706Z,3.35
2022-11-06T02:27:15.125Z,3.32
2022-11-06T02:30:07.275Z,3.33
2022-11-06T02:33:03.179Z,3.31
2022-11-06T02:35:57.678Z,3.31
2022-11-06T02:38:52.532Z,3.35
2022-11-06T02:41:46.175Z,3.33
2022-11-06T02:44:38.298Z,3.31
2022-11-06T02:47:32.793Z,3.27
2022-11-06T02:50:27.022Z,3.27
2022-11-06T02:53:19.338Z,3.28
2022-11-06T02:56:13.480Z,3.26
2022-11-06T02:59:10.846Z,3.22
2022-11-06T03:02:05.979Z,3.20
2022-11-06T03:05:01.661Z,3.25
2022-11-06T03:07:58.022Z,3.27
2022-11-06T03:10:57.496Z,3.27
2022-11-06T03:13:55.353Z,3.25
2022-11-06T03:16:57.337Z,3.20
2022-11-06T03:19:54.096Z,3.20
2022-11-06T03:22:49.291Z,3.22
2022-11-06T03:25:54.236Z,3.21
2022-11-06T03:28:51.336Z,3.25
2022-11-06T03:31:48.625Z,3.26
2022-11-06T03:34:50.717Z,3.27
2022-11-06T03:37:45.732Z,3.29
2022-11-06T03:40:39.365Z,3.32
2022-11-06T03:43:33.197Z,3.32
2022-11-06T03:46:25.175Z,3.31
2022-11-06T03:49:19.689Z,3.32
2022-11-06T03:52:14.932Z,3.35
2022-11-06T03:55:09.563Z,3.33
2022-11-06T03:58:04.756Z,3.33
2022-11-06T04:00:55.798Z,3.31
2022-11-06T04:03:52.556Z,3.28
2022-11-06T04:06:49.048Z,3.27
2022-11-06T04:10:03.380Z,3.27
2022-11-06T04:13:13.660Z,3.27
2022-11-06T04:16:02.219Z,3.28
2022-11-06T04:18:49.911Z,3.25
2022-11-06T04:21:59.754Z,3.24
2022-11-06T04:25:22.474Z,3.23
2022-11-06T04:28:26.382Z,3.26
2022-11-06T04:31:26.416Z,3.25
2022-11-06T04:34:24.013Z,3.26
2022-11-06T04:37:22.712Z,3.27
2022-11-06T04:40:22.714Z,3.27
2022-11-06T04:43:19.870Z,3.30
2022-11-06T04:46:11.235Z,3.33
2022-11-06T04:49:01.083Z,3.36
2022-11-06T04:51:49.138Z,3.44
2022-11-06T04:54:37.483Z,3.47
2022-11-06T04:57:27.462Z,3.51
2022-11-06T05:00:17.650Z,3.50
2022-11-06T05:03:06.340Z,3.50
2022-11-06T05:05:53.956Z,3.45
2022-11-06T05:08:43.496Z,3.45
2022-11-06T05:11:31.248Z,3.46
2022-11-06T05:14:20.192Z,3.48
2022-11-06T05:17:08.921Z,3.51
2022-11-06T05:19:56.394Z,3.53
2022-11-06T05:22:58.617Z,3.56
2022-11-06T05:25:46.417Z,3.57
2022-11-06T05:28:34.935Z,3.59
2022-11-06T05:31:24.821Z,3.60
2022-11-06T05:34:13.665Z,3.58
2022-11-06T05:37:01.364Z,3.55
2022-11-06T05:39:49.151Z,3.49
2022-11-06T05:42:38.381Z,3.49
2022-11-06T05:45:25.880Z,3.50
2022-11-06T05:48:15.161Z,3.51
2022-11-06T05:51:03.519Z,3.51
2022-11-06T05:53:50.745Z,3.51
2022-11-06T05:56:38.132Z,3.49
2022-11-06T05:59:27.457Z,3.45
2022-11-06T06:02:14.965Z,3.45
2022-11-06T06:05:05.000Z,3.45
2022-11-06T06:07:52.388Z,3.44
2022-11-06T06:10:42.369Z,3.43
2022-11-06T06:13:32.203Z,3.47
2022-11-06T06:16:20.082Z,3.49
2022-11-06T06:32:21.732Z,3.40
2022-11-06T06:35:09.902Z,3.36
2022-11-06T06:37:57.608Z,3.37
2022-11-06T06:40:45.261Z,3.31
2022-11-06T06:43:33.311Z,3.29
2022-11-06T06:46:25.998Z,3.37
2022-11-06T06:49:14.769Z,3.44
2022-11-06T06:52:04.211Z,3.40
2022-11-06T06:54:51.902Z,3.42
2022-11-06T06:57:39.438Z,3.50
2022-11-06T07:00:28.068Z,3.33
2022-11-06T07:03:15.884Z,3.34
2022-11-06T07:06:05.292Z,3.43
2022-11-06T07:08:56.824Z,3.49
2022-11-06T07:11:45.231Z,3.59
2022-11-06T07:14:32.681Z,3.66
2022-11-06T07:17:20.160Z,3.74
2022-11-06T07:20:09.962Z,3.79
2022-11-06T07:23:02.039Z,3.84
2022-11-06T07:25:54.632Z,3.85
2022-11-06T07:28:44.886Z,3.87
2022-11-06T07:31:32.649Z,3.74
2022-11-06T07:34:20.320Z,3.58
2022-11-06T07:37:11.186Z,3.64
2022-11-06T07:40:00.966Z,3.66
2022-11-06T07:42:49.478Z,3.56
2022-11-06T07:45:38.264Z,3.47
2022-11-06T07:48:25.893Z,3.65
2022-11-06T07:51:13.608Z,3.84
2022-11-06T07:54:02.146Z,3.92
2022-11-06T07:56:51.054Z,4.02
2022-11-06T07:59:38.617Z,3.93
2022-11-06T08:02:26.659Z,4.00
2022-11-06T08:05:14.548Z,3.84
2022-11-06T08:08:02.511Z,4.01
2022-11-06T08:10:51.785Z,4.02
2022-11-06T08:13:41.652Z,3.95
2022-11-06T08:16:29.842Z,4.05
2022-11-06T08:19:17.696Z,4.11
2022-11-06T08:22:07.257Z,4.24
2022-11-06T08:24:57.384Z,4.18
2022-11-06T08:27:47.185Z,4.10
2022-11-06T08:30:37.149Z,4.24
2022-11-06T08:33:26.063Z,4.42
2022-11-06T08:36:15.389Z,4.38
2022-11-06T08:39:03.180Z,4.43
2022-11-06T08:41:54.105Z,4.41
2022-11-06T08:44:42.525Z,4.42
2022-11-06T08:47:34.201Z,4.40
2022-11-06T08:50:25.521Z,4.56
2022-11-06T08:53:13.580Z,4.49
2022-11-06T08:56:03.951Z,4.74
2022-11-06T08:58:55.843Z,4.70
2022-11-06T09:01:43.579Z,4.75
2022-11-06T09:04:37.293Z,4.88
2022-11-06T09:07:27.647Z,5.10
2022-11-06T09:10:15.309Z,5.19
2022-11-06T09:13:02.961Z,5.20
2022-11-06T09:15:50.273Z,5.20
2022-11-06T09:18:37.885Z,5.34
2022-11-06T09:21:26.859Z,5.55
2022-11-06T09:24:14.878Z,5.44
2022-11-06T09:27:04.357Z,5.36
2022-11-06T09:29:52.499Z,5.64
2022-11-06T09:32:40.696Z,5.71
2022-11-06T09:35:30.976Z,5.67
2022-11-06T09:38:20.895Z,5.70
2022-11-06T09:41:19.104Z,5.85
2022-11-06T09:44:29.361Z,5.75
2022-11-06T09:47:23.202Z,5.88
2022-11-06T09:50:23.093Z,6.00
2022-11-06T09:53:21.224Z,5.96
2022-11-06T09:56:14.239Z,6.16
2022-11-06T09:59:05.099Z,6.35
2022-11-06T10:02:01.523Z,6.43
2022-11-06T10:04:58.821Z,6.59
2022-11-06T10:07:48.331Z,6.62
2022-11-06T10:10:53.244Z,6.67
2022-11-06T10:14:03.627Z,6.77
2022-11-06T10:17:03.314Z,6.91
2022-11-06T10:19:58.651Z,6.89
2022-11-06T10:23:03.597Z,7.01
2022-11-06T10:26:10.970Z,6.98
2022-11-06T10:29:22.434Z,7.12
2022-11-06T10:32:49.730Z,7.16
2022-11-06T10:35:47.288Z,7.09
2022-11-06T10:38:47.324Z,7.09
2022-11-06T10:41:41.420Z,7.09
2022-11-06T10:44:37.854Z,7.24
2022-11-06T10:47:31.541Z,7.29
2022-11-06T10:50:19.888Z,7.50
2022-11-06T10:53:20.353Z,7.57
2022-11-06T10:56:33.205Z,7.63
2022-11-06T10:59:22.490Z,7.37
2022-11-06T11:02:27.337Z,7.44
2022-11-06T11:05:19.011Z,7.47
2022-11-06T11:08:07.574Z,7.52
2022-11-06T11:11:05.362Z,7.66
2022-11-06T11:14:22.640Z,7.53
2022-11-06T11:17:11.716Z,7.69
2022-11-06T11:19:59.357Z,7.70
2022-11-06T11:22:47.091Z,7.75
2022-11-06T11:25:35.322Z,7.72
2022-11-06T11:28:33.797Z,7.69
2022-11-06T11:31:28.421Z,7.61
2022-11-06T11:34:24.553Z,7.74
2022-11-06T11:37:27.013Z,7.80
2022-11-06T11:40:36.655Z,8.06
2022-11-06T11:43:27.668Z,8.19
2022-11-06T11:46:22.265Z,8.18
2022-11-06T11:49:32.146Z,7.94
2022-11-06T11:52:23.399Z,7.98
2022-11-06T11:55:17.633Z,7.86
2022-11-06T11:58:05.999Z,8.03
2022-11-06T12:00:57.744Z,8.04
2022-11-06T12:03:53.726Z,8.00
2022-11-06T12:06:58.681Z,7.85
2022-11-06T12:09:47.034Z,7.93
2022-11-06T12:12:37.438Z,7.96
2022-11-06T12:15:31.223Z,7.95
2022-11-06T12:18:24.472Z,7.92
2022-11-06T12:21:27.809Z,7.79
2022-11-06T12:24:21.860Z,7.97
2022-11-06T12:27:25.712Z,8.03
2022-11-06T12:30:17.762Z,8.10
2022-11-06T12:33:15.679Z,8.23
2022-11-06T12:36:09.379Z,8.13
2022-11-06T12:39:07.126Z,8.05
2022-11-06T12:41:58.026Z,8.17
2022-11-06T12:44:49.073Z,8.19
2022-11-06T12:47:51.869Z,8.27
2022-11-06T12:50:49.931Z,8.39
2022-11-06T12:53:57.349Z,8.13
2022-11-06T12:57:07.763Z,8.20
2022-11-06T13:00:11.597Z,8.34
2022-11-06T13:03:23.433Z,8.42
2022-11-06T13:06:19.361Z,8.47
2022-11-06T13:09:22.368Z,8.62
2022-11-06T13:12:24.302Z,8.60
2022-11-06T13:15:28.160Z,8.51
2022-11-06T13:18:24.692Z,8.55
2022-11-06T13:21:21.385Z,8.67
2022-11-06T13:24:19.505Z,8.64
2022-11-06T13:27:19.325Z,8.65
2022-11-06T13:30:17.012Z,8.75
2022-11-06T13:33:18.351Z,8.78
2022-11-06T13:36:07.791Z,8.83
2022-11-06T13:39:04.006Z,8.85
2022-11-06T13:41:54.741Z,9.02
2022-11-06T13:44:44.111Z,8.95
2022-11-06T13:47:42.294Z,9.07
2022-11-06T13:50:40.916Z,9.22
2022-11-06T13:53:42.360Z,9.07
2022-11-06T13:57:33.874Z,8.89
2022-11-06T14:00:25.374Z,8.62
2022-11-06T14:03:54.956Z,8.53
2022-11-06T14:06:44.457Z,8.54
2022-11-06T14:09:36.716Z,8.51
2022-11-06T14:12:24.934Z,8.42
2022-11-06T14:15:29.287Z,8.34
2022-11-06T14:18:24.845Z,8.57
2022-11-06T14:21:48.062Z,8.52
2022-11-06T14:24:36.033Z,8.49
2022-11-06T14:28:07.428Z,8.26
2022-11-06T14:31:14.213Z,8.20
2022-11-06T14:34:03.614Z,8.09
2022-11-06T14:36:50.863Z,8.11
2022-11-06T14:40:05.505Z,8.05
2022-11-06T14:42:53.156Z,7.90
2022-11-06T14:45:52.638Z,7.94
2022-11-06T14:48:48.132Z,7.87
2022-11-06T14:51:36.243Z,7.98
2022-11-06T14:54:25.833Z,8.08
2022-11-06T14:57:19.709Z,8.09
2022-11-06T15:00:13.882Z,8.03
2022-11-06T15:03:02.319Z,7.96
2022-11-06T15:05:52.836Z,7.93
2022-11-06T15:09:02.783Z,7.77
2022-11-06T15:12:02.656Z,7.92
2022-11-06T15:15:16.308Z,8.02
2022-11-06T15:18:06.738Z,8.18
2022-11-06T15:21:00.552Z,8.16
2022-11-06T15:24:04.662Z,8.10
2022-11-06T15:26:58.650Z,8.23
2022-11-06T15:29:53.004Z,8.29
2022-11-06T15:32:45.768Z,8.29
2022-11-06T15:35:36.842Z,8.29
2022-11-06T15:38:38.888Z,8.12
2022-11-06T15:41:28.113Z,7.94
2022-11-06T15:44:20.827Z,7.85
2022-11-06T15:47:22.429Z,7.82
2022-11-06T15:50:17.897Z,7.64
2022-11-06T15:53:22.247Z,7.50
2022-11-06T15:56:15.808Z,7.45
2022-11-06T15:59:14.006Z,7.35
2022-11-06T16:02:13.500Z,7.42
2022-11-06T16:05:01.549Z,7.47
2022-11-06T16:07:50.077Z,7.50
2022-11-06T16:10:39.982Z,7.50
2022-11-06T16:13:31.603Z,7.49
2022-11-06T16:16:42.781Z,7.42
2022-11-06T16:19:38.601Z,7.36
2022-11-06T16:22:34.448Z,7.33
2022-11-06T16:25:22.581Z,7.27
2022-11-06T16:28:20.017Z,7.22
2022-11-06T16:31:16.059Z,7.16
2022-11-06T16:34:07.586Z,7.11
2022-11-06T16:37:01.773Z,7.07
2022-11-06T16:39:52.892Z,7.01
2022-11-06T16:42:40.699Z,6.99
2022-11-06T16:45:28.613Z,6.95
2022-11-06T16:48:32.272Z,6.88
2022-11-06T16:51:33.895Z,6.83
2022-11-06T16:54:28.676Z,6.79
2022-11-06T16:57:20.328Z,6.72
2022-11-06T17:00:24.620Z,6.68
2022-11-06T17:03:22.414Z,6.67
2022-11-06T17:06:23.519Z,6.61
2022-11-06T17:09:31.050Z,6.55
2022-11-06T17:12:18.863Z,6.52
2022-11-06T17:15:07.868Z,6.47
2022-11-06T17:17:55.404Z,6.43
2022-11-06T17:20:52.057Z,6.39
2022-11-06T17:23:41.627Z,6.35
2022-11-06T17:26:32.157Z,6.31
2022-11-06T17:29:22.364Z,6.27
2022-11-06T17:32:10.029Z,6.24
2022-11-06T17:34:57.574Z,6.23
2022-11-06T17:37:45.179Z,6.20
2022-11-06T17:40:34.018Z,6.20
2022-11-06T17:43:21.480Z,6.18
2022-11-06T17:46:14.182Z,6.15
2022-11-06T17:49:03.418Z,6.12
2022-11-06T17:52:01.574Z,6.10
2022-11-06T17:54:49.468Z,6.09
2022-11-06T17:57:41.765Z,6.06
2022-11-06T18:00:33.963Z,6.04
2022-11-06T18:03:23.787Z,6.01
2022-11-06T18:06:12.080Z,6.00
2022-11-06T18:09:01.609Z,6.00
2022-11-06T18:11:50.964Z,5.99
2022-11-06T18:14:39.896Z,5.96
2022-11-06T18:17:27.671Z,5.95
2022-11-06T18:20:15.318Z,5.92
2022-11-06T18:23:04.437Z,5.90
2022-11-06T18:25:59.881Z,5.89
2022-11-06T18:29:11.395Z,5.91
2022-11-06T18:31:58.988Z,5.88
2022-11-06T18:34:48.261Z,5.85
2022-11-06T18:37:35.940Z,5.81
2022-11-06T18:40:23.561Z,5.85
2022-11-06T18:43:11.959Z,5.84
2022-11-06T18:45:59.595Z,5.82
2022-11-06T18:48:48.716Z,5.84
2022-11-06T18:51:36.739Z,5.83
2022-11-06T18:54:24.474Z,5.83
2022-11-06T18:57:15.444Z,5.81
2022-11-06T19:00:03.154Z,5.80
2022-11-06T19:02:51.558Z,5.80
2022-11-06T19:05:46.873Z,5.78
2022-11-06T19:08:35.438Z,5.79
2022-11-06T19:11:23.507Z,5.77
2022-11-06T19:14:12.837Z,5.78
2022-11-06T19:17:00.556Z,5.79
2022-11-06T19:19:48.584Z,5.78
2022-11-06T19:22:37.603Z,5.79
2022-11-06T19:25:25.657Z,5.78
2022-11-06T19:28:13.637Z,5.78
2022-11-06T19:31:01.727Z,5.80
2022-11-06T19:33:49.379Z,5.82
2022-11-06T19:36:37.485Z,5.85
2022-11-06T19:39:26.544Z,5.87
2022-11-06T19:42:14.254Z,5.90
2022-11-06T19:45:08.757Z,5.92
2022-11-06T19:47:56.464Z,5.95
2022-11-06T19:50:59.415Z,5.97
2022-11-06T19:53:48.021Z,5.93
2022-11-06T19:57:29.664Z,5.98
2022-11-06T19:59:46.415Z,6.04
2022-11-06T20:02:35.557Z,6.00
2022-11-06T20:05:25.470Z,6.04
2022-11-06T20:08:13.438Z,6.09
2022-11-06T20:11:04.247Z,6.13
2022-11-06T20:13:53.122Z,6.14
2022-11-06T20:16:41.992Z,6.16
2022-11-06T20:19:29.505Z,6.14
2022-11-06T20:22:17.065Z,6.15
2022-11-06T20:25:04.604Z,6.16
2022-11-06T20:27:52.344Z,6.16
2022-11-06T20:30:41.276Z,6.20
2022-11-06T20:33:30.108Z,6.21
2022-11-06T20:36:23.018Z,6.22
2022-11-06T20:39:10.887Z,6.20
2022-11-06T20:41:59.000Z,6.23
2022-11-06T20:44:46.615Z,6.25
2022-11-06T20:47:38.349Z,6.26
2022-11-06T20:50:30.089Z,6.28
2022-11-06T20:53:19.732Z,6.30
2022-11-06T20:56:11.299Z,6.32
2022-11-06T20:58:59.117Z,6.34
2022-11-06T21:01:47.376Z,6.35
2022-11-06T21:04:40.103Z,6.30
2022-11-06T21:07:27.635Z,6.34
2022-11-06T21:10:15.087Z,6.31
2022-11-06T21:13:02.442Z,6.32
2022-11-06T21:15:49.857Z,6.36
2022-11-06T21:18:38.975Z,6.42
2022-11-06T21:21:32.846Z,6.40
2022-11-06T21:24:20.889Z,6.46
2022-11-06T21:27:09.623Z,6.49
2022-11-06T21:29:58.317Z,6.47
2022-11-06T21:32:45.991Z,6.47
2022-11-06T21:35:33.687Z,6.53
2022-11-06T21:38:22.498Z,6.53
2022-11-06T21:41:13.204Z,6.48
2022-11-06T21:44:01.299Z,6.48
2022-11-06T21:46:49.641Z,6.50
2022-11-06T21:49:37.145Z,6.52
2022-11-06T21:52:42.284Z,6.50
2022-11-06T21:55:53.610Z,6.51
2022-11-06T21:58:41.233Z,6.49
2022-11-06T22:01:29.420Z,6.47
2022-11-06T22:04:17.190Z,6.44
2022-11-06T22:07:04.897Z,6.47
2022-11-06T22:09:53.524Z,6.45
2022-11-06T22:12:42.453Z,6.42
2022-11-06T22:15:30.093Z,6.42
2022-11-06T22:18:17.657Z,6.46
2022-11-06T22:21:10.086Z,6.46
2022-11-06T22:23:58.808Z,6.47
2022-11-06T22:26:46.708Z,6.50
2022-11-06T22:29:35.517Z,6.53
2022-11-06T22:32:23.116Z,6.53
2022-11-06T22:35:11.185Z,6.54
2022-11-06T22:37:58.730Z,6.55
2022-11-06T22:40:53.867Z,6.52
2022-11-06T22:43:42.857Z,6.54
2022-11-06T22:46:32.573Z,6.53
2022-11-06T22:49:20.217Z,6.51
2022-11-06T22:52:07.950Z,6.48
2022-11-06T22:54:55.539Z,6.44
2022-11-06T22:57:43.028Z,6.47
2022-11-06T23:00:30.470Z,6.44
2022-11-06T23:03:19.627Z,6.39
2022-11-06T23:06:13.384Z,6.35
2022-11-06T23:09:02.294Z,6.34
2022-11-06T23:11:50.099Z,6.31
2022-11-06T23:14:37.563Z,6.29
2022-11-06T23:17:25.106Z,6.27
2022-11-06T23:20:19.003Z,6.23
2022-11-06T23:23:08.133Z,6.20
2022-11-06T23:25:55.911Z,6.17
2022-11-06T23:28:44.651Z,6.12
2022-11-06T23:31:32.445Z,6.08
2022-11-06T23:34:21.462Z,6.04
2022-11-06T23:37:10.112Z,6.03
2022-11-06T23:39:57.862Z,6.01
2022-11-06T23:42:45.120Z,5.99
2022-11-06T23:45:49.913Z,5.98
2022-11-06T23:48:37.620Z,6.01
2022-11-06T23:51:27.772Z,6.14
2022-11-06T23:54:17.285Z,6.17
2022-11-06T23:57:05.148Z,6.24
2022-11-06T23:59:53.600Z,6.16
